createdAt,value
2019-01-11T00:00:37.866Z,1021.15
2019-01-11T00:01:37.873Z,1021.17
2019-01-11T00:02:37.841Z,1021.19
2019-01-11T00:03:37.864Z,1021.15
2019-01-11T00:04:37.820Z,1021.16
2019-01-11T00:05:37.812Z,1021.13
2019-01-11T00:06:37.822Z,1021.10
2019-01-11T00:07:37.791Z,1021.12
2019-01-11T00:08:37.782Z,1021.12
2019-01-11T00:09:37.781Z,1021.11
2019-01-11T00:10:37.756Z,1021.12
2019-01-11T00:11:37.750Z,1021.14
2019-01-11T00:12:37.751Z,1021.17
2019-01-11T00:13:37.723Z,1021.14
2019-01-11T00:14:37.713Z,1021.09
2019-01-11T00:15:37.704Z,1021.09
2019-01-11T00:16:37.694Z,1021.05
2019-01-11T00:17:37.707Z,1021.02
2019-01-11T00:18:37.681Z,1021.02
2019-01-11T00:19:37.661Z,1020.97
2019-01-11T00:20:37.652Z,1020.99
2019-01-11T00:21:37.649Z,1021.01
2019-01-11T00:22:37.627Z,1020.96
2019-01-11T00:23:37.637Z,1021.01
2019-01-11T00:24:37.621Z,1020.96
2019-01-11T00:25:37.623Z,1020.98
2019-01-11T00:26:37.610Z,1021.00
2019-01-11T00:27:37.576Z,1020.99
2019-01-11T00:28:37.590Z,1020.97
2019-01-11T00:29:37.557Z,1020.98
2019-01-11T00:30:37.544Z,1020.99
2019-01-11T00:31:37.539Z,1020.99
2019-01-11T00:32:37.528Z,1021.04
2019-01-11T00:33:37.563Z,1020.99
2019-01-11T00:34:37.514Z,1021.00
2019-01-11T00:35:37.499Z,1021.01
2019-01-11T00:36:37.491Z,1020.98
2019-01-11T00:37:37.479Z,1020.96
2019-01-11T00:38:37.489Z,1020.97
2019-01-11T00:39:37.453Z,1020.97
2019-01-11T00:40:37.453Z,1020.95
2019-01-11T00:41:37.443Z,1020.95
2019-01-11T00:42:37.423Z,1020.93
2019-01-11T00:43:37.411Z,1020.92
2019-01-11T00:44:37.419Z,1020.90
2019-01-11T00:45:37.397Z,1020.91
2019-01-11T00:46:37.416Z,1020.88
2019-01-11T00:47:37.371Z,1020.87
2019-01-11T00:48:37.355Z,1020.83
2019-01-11T00:49:37.374Z,1020.82
2019-01-11T00:50:37.341Z,1020.81
2019-01-11T00:51:37.325Z,1020.78
2019-01-11T00:52:37.317Z,1020.80
2019-01-11T00:53:37.306Z,1020.77
2019-01-11T00:54:37.294Z,1020.80
2019-01-11T00:55:37.302Z,1020.78
2019-01-11T00:56:37.298Z,1020.78
2019-01-11T00:57:37.271Z,1020.77
2019-01-11T00:58:37.252Z,1020.78
2019-01-11T00:59:37.241Z,1020.75
2019-01-11T01:00:37.291Z,1020.81
2019-01-11T01:01:37.254Z,1020.85
2019-01-11T01:02:37.212Z,1020.81
2019-01-11T01:03:37.204Z,1020.80
2019-01-11T01:04:37.200Z,1020.76
2019-01-11T01:05:37.197Z,1020.73
2019-01-11T01:06:37.202Z,1020.77
2019-01-11T01:07:37.167Z,1020.83
2019-01-11T01:08:37.148Z,1020.81
2019-01-11T01:09:37.138Z,1020.77
2019-01-11T01:10:37.180Z,1020.75
2019-01-11T01:11:37.113Z,1020.77
2019-01-11T01:12:37.109Z,1020.72
2019-01-11T01:13:37.100Z,1020.77
2019-01-11T01:14:37.085Z,1020.75
2019-01-11T01:15:37.104Z,1020.71
2019-01-11T01:16:37.098Z,1020.70
2019-01-11T01:17:37.092Z,1020.68
2019-01-11T01:18:37.054Z,1020.71
2019-01-11T01:19:37.040Z,1020.70
2019-01-11T01:20:37.028Z,1020.70
2019-01-11T01:21:37.040Z,1020.66
2019-01-11T01:22:37.019Z,1020.66
2019-01-11T01:23:37.010Z,1020.61
2019-01-11T01:24:37.031Z,1020.62
2019-01-11T01:25:36.976Z,1020.65
2019-01-11T01:26:36.958Z,1020.64
2019-01-11T01:27:36.969Z,1020.64
2019-01-11T01:28:36.935Z,1020.65
2019-01-11T01:29:36.927Z,1020.65
2019-01-11T01:30:36.915Z,1020.66
2019-01-11T01:31:36.940Z,1020.65
2019-01-11T01:32:36.915Z,1020.61
2019-01-11T01:33:36.907Z,1020.66
2019-01-11T01:34:36.875Z,1020.65
2019-01-11T01:35:36.865Z,1020.68
2019-01-11T01:36:36.875Z,1020.67
2019-01-11T01:37:36.870Z,1020.70
2019-01-11T01:38:36.845Z,1020.71
2019-01-11T01:39:36.825Z,1020.69
2019-01-11T01:40:36.815Z,1020.64
2019-01-11T01:41:36.808Z,1020.68
2019-01-11T01:42:36.800Z,1020.64
2019-01-11T01:43:36.806Z,1020.65
2019-01-11T01:44:36.781Z,1020.63
2019-01-11T01:45:36.773Z,1020.64
2019-01-11T01:46:36.747Z,1020.60
2019-01-11T01:47:36.743Z,1020.58
2019-01-11T01:48:36.757Z,1020.60
2019-01-11T01:49:36.743Z,1020.58
2019-01-11T01:50:36.702Z,1020.57
2019-01-11T01:51:36.720Z,1020.57
2019-01-11T01:52:36.687Z,1020.60
2019-01-11T01:53:36.677Z,1020.58
2019-01-11T01:54:36.685Z,1020.54
2019-01-11T01:55:36.661Z,1020.56
2019-01-11T01:56:36.646Z,1020.55
2019-01-11T01:57:36.633Z,1020.53
2019-01-11T01:58:36.621Z,1020.54
2019-01-11T01:59:36.627Z,1020.53
2019-01-11T02:00:36.602Z,1020.57
2019-01-11T02:01:36.591Z,1020.57
2019-01-11T02:02:36.577Z,1020.53
2019-01-11T02:03:36.564Z,1020.51
2019-01-11T02:04:36.556Z,1020.48
2019-01-11T02:05:36.609Z,1020.49
2019-01-11T02:06:36.539Z,1020.52
2019-01-11T02:07:36.530Z,1020.47
2019-01-11T02:08:36.523Z,1020.53
2019-01-11T02:09:36.513Z,1020.52
2019-01-11T02:10:36.518Z,1020.49
2019-01-11T02:11:36.517Z,1020.45
2019-01-11T02:12:36.508Z,1020.46
2019-01-11T02:13:36.474Z,1020.49
2019-01-11T02:14:36.447Z,1020.53
2019-01-11T02:15:36.453Z,1020.46
2019-01-11T02:16:36.454Z,1020.51
2019-01-11T02:17:36.416Z,1020.41
2019-01-11T02:18:36.406Z,1020.45
2019-01-11T02:19:36.397Z,1020.44
2019-01-11T02:20:36.386Z,1020.41
2019-01-11T02:21:36.408Z,1020.35
2019-01-11T02:22:36.365Z,1020.35
2019-01-11T02:23:36.357Z,1020.37
2019-01-11T02:24:36.354Z,1020.36
2019-01-11T02:25:36.334Z,1020.33
2019-01-11T02:26:36.341Z,1020.34
2019-01-11T02:27:36.312Z,1020.35
2019-01-11T02:28:36.300Z,1020.30
2019-01-11T02:29:36.301Z,1020.29
2019-01-11T02:30:36.311Z,1020.30
2019-01-11T02:31:36.292Z,1020.31
2019-01-11T02:32:36.264Z,1020.25
2019-01-11T02:33:36.264Z,1020.28
2019-01-11T02:34:36.241Z,1020.29
2019-01-11T02:35:36.248Z,1020.25
2019-01-11T02:36:36.217Z,1020.26
2019-01-11T02:37:36.239Z,1020.25
2019-01-11T02:38:36.196Z,1020.20
2019-01-11T02:39:36.185Z,1020.22
2019-01-11T02:40:36.177Z,1020.24
2019-01-11T02:41:36.167Z,1020.22
2019-01-11T02:42:36.197Z,1020.23
2019-01-11T02:43:36.173Z,1020.18
2019-01-11T02:44:36.139Z,1020.17
2019-01-11T02:45:36.130Z,1020.16
2019-01-11T02:46:36.118Z,1020.20
2019-01-11T02:47:36.101Z,1020.18
2019-01-11T02:48:36.110Z,1020.12
2019-01-11T02:49:39.970Z,1020.10
2019-01-11T02:50:36.081Z,1020.08
2019-01-11T02:51:36.060Z,1020.10
2019-01-11T02:52:36.054Z,1020.07
2019-01-11T02:53:36.085Z,1020.09
2019-01-11T02:54:36.032Z,1020.03
2019-01-11T02:55:36.015Z,1019.94
2019-01-11T02:56:36.007Z,1019.96
2019-01-11T02:57:35.998Z,1019.97
2019-01-11T02:58:36.007Z,1019.91
2019-01-11T02:59:36.000Z,1019.98
2019-01-11T03:00:35.965Z,1019.91
2019-01-11T03:01:35.954Z,1019.93
2019-01-11T03:02:35.945Z,1019.89
2019-01-11T03:03:35.933Z,1019.88
2019-01-11T03:04:35.960Z,1019.91
2019-01-11T03:05:35.919Z,1019.89
2019-01-11T03:06:35.898Z,1019.87
2019-01-11T03:07:35.901Z,1019.88
2019-01-11T03:08:35.882Z,1019.92
2019-01-11T03:09:35.889Z,1019.91
2019-01-11T03:10:35.859Z,1019.91
2019-01-11T03:11:35.844Z,1019.85
2019-01-11T03:12:35.836Z,1019.90
2019-01-11T03:13:35.827Z,1019.88
2019-01-11T03:14:35.856Z,1019.83
2019-01-11T03:15:35.826Z,1019.82
2019-01-11T03:16:35.793Z,1019.88
2019-01-11T03:17:35.785Z,1019.88
2019-01-11T03:18:35.778Z,1019.87
2019-01-11T03:19:35.764Z,1019.85
2019-01-11T03:20:35.768Z,1019.86
2019-01-11T03:21:35.741Z,1019.85
2019-01-11T03:22:35.767Z,1019.82
2019-01-11T03:23:35.720Z,1019.82
2019-01-11T03:24:35.708Z,1019.79
2019-01-11T03:25:35.716Z,1019.81
2019-01-11T03:26:35.696Z,1019.78
2019-01-11T03:27:35.677Z,1019.80
2019-01-11T03:28:35.669Z,1019.77
2019-01-11T03:29:35.670Z,1019.79
2019-01-11T03:30:35.666Z,1019.74
2019-01-11T03:31:35.641Z,1019.75
2019-01-11T03:32:35.624Z,1019.75
2019-01-11T03:33:35.616Z,1019.68
2019-01-11T03:34:35.606Z,1019.71
2019-01-11T03:35:35.613Z,1019.64
2019-01-11T03:36:35.578Z,1019.70
2019-01-11T03:37:35.583Z,1019.66
2019-01-11T03:38:35.566Z,1019.68
2019-01-11T03:39:35.547Z,1019.63
2019-01-11T03:40:35.535Z,1019.63
2019-01-11T03:41:35.544Z,1019.60
2019-01-11T03:42:35.515Z,1019.60
2019-01-11T03:43:35.514Z,1019.59
2019-01-11T03:44:35.499Z,1019.58
2019-01-11T03:45:35.485Z,1019.57
2019-01-11T03:46:35.495Z,1019.56
2019-01-11T03:47:35.465Z,1019.51
2019-01-11T03:48:35.458Z,1019.52
2019-01-11T03:49:35.461Z,1019.55
2019-01-11T03:50:35.439Z,1019.48
2019-01-11T03:51:35.458Z,1019.51
2019-01-11T03:52:35.409Z,1019.51
2019-01-11T03:53:35.396Z,1019.49
2019-01-11T03:54:35.392Z,1019.48
2019-01-11T03:55:35.393Z,1019.42
2019-01-11T03:56:35.394Z,1019.45
2019-01-11T03:57:35.359Z,1019.43
2019-01-11T03:58:35.353Z,1019.44
2019-01-11T03:59:35.345Z,1019.44
2019-01-11T04:00:35.327Z,1019.40
2019-01-11T04:01:35.359Z,1019.45
2019-01-11T04:02:35.304Z,1019.41
2019-01-11T04:03:35.302Z,1019.40
2019-01-11T04:04:35.281Z,1019.43
2019-01-11T04:05:35.274Z,1019.41
2019-01-11T04:06:35.273Z,1019.33
2019-01-11T04:07:35.267Z,1019.29
2019-01-11T04:08:35.259Z,1019.33
2019-01-11T04:09:35.234Z,1019.32
2019-01-11T04:10:35.217Z,1019.32
2019-01-11T04:11:35.208Z,1019.31
2019-01-11T04:12:35.225Z,1019.26
2019-01-11T04:13:35.191Z,1019.28
2019-01-11T04:14:35.193Z,1019.24
2019-01-11T04:15:35.210Z,1019.22
2019-01-11T04:16:35.157Z,1019.22
2019-01-11T04:17:35.159Z,1019.23
2019-01-11T04:18:35.155Z,1019.19
2019-01-11T04:19:35.135Z,1019.15
2019-01-11T04:20:35.116Z,1019.19
2019-01-11T04:21:35.102Z,1019.15
2019-01-11T04:22:35.089Z,1019.21
2019-01-11T04:23:35.128Z,1019.19
2019-01-11T04:24:35.081Z,1019.18
2019-01-11T04:25:35.056Z,1019.20
2019-01-11T04:26:35.046Z,1019.18
2019-01-11T04:27:35.046Z,1019.20
2019-01-11T04:28:35.054Z,1019.17
2019-01-11T04:29:35.015Z,1019.15
2019-01-11T04:30:35.008Z,1019.13
2019-01-11T04:31:35.017Z,1019.16
2019-01-11T04:32:34.983Z,1019.10
2019-01-11T04:33:34.988Z,1019.12
2019-01-11T04:34:34.967Z,1019.12
2019-01-11T04:35:34.956Z,1019.10
2019-01-11T04:36:34.940Z,1019.15
2019-01-11T04:37:34.935Z,1019.12
2019-01-11T04:38:34.938Z,1019.14
2019-01-11T04:39:34.904Z,1019.07
2019-01-11T04:40:34.918Z,1019.09
2019-01-11T04:41:34.888Z,1019.09
2019-01-11T04:42:34.877Z,1019.09
2019-01-11T04:43:34.886Z,1019.07
2019-01-11T04:44:34.856Z,1019.09
2019-01-11T04:45:34.846Z,1019.08
2019-01-11T04:46:34.863Z,1019.05
2019-01-11T04:47:34.828Z,1018.99
2019-01-11T04:48:34.813Z,1019.06
2019-01-11T04:49:34.823Z,1019.03
2019-01-11T04:50:34.790Z,1018.97
2019-01-11T04:51:34.775Z,1018.95
2019-01-11T04:52:34.769Z,1018.96
2019-01-11T04:53:34.782Z,1018.95
2019-01-11T04:54:34.767Z,1018.91
2019-01-11T04:55:34.734Z,1018.96
2019-01-11T04:56:34.726Z,1018.92
2019-01-11T04:57:34.721Z,1018.96
2019-01-11T04:58:34.704Z,1018.93
2019-01-11T04:59:34.693Z,1018.96
2019-01-11T05:00:34.715Z,1018.96
2019-01-11T05:01:34.678Z,1018.97
2019-01-11T05:02:34.665Z,1018.98
2019-01-11T05:03:34.654Z,1018.89
2019-01-11T05:04:34.644Z,1018.93
2019-01-11T05:05:34.678Z,1018.93
2019-01-11T05:06:34.622Z,1018.89
2019-01-11T05:07:34.608Z,1018.88
2019-01-11T05:08:34.609Z,1018.94
2019-01-11T05:09:34.600Z,1018.90
2019-01-11T05:10:34.605Z,1018.87
2019-01-11T05:11:34.568Z,1018.87
2019-01-11T05:12:34.565Z,1018.87
2019-01-11T05:13:34.549Z,1018.84
2019-01-11T05:14:34.548Z,1018.87
2019-01-11T05:15:34.545Z,1018.84
2019-01-11T05:16:39.419Z,1018.85
2019-01-11T05:17:35.503Z,1018.80
2019-01-11T05:18:34.529Z,1018.85
2019-01-11T05:19:34.489Z,1018.81
2019-01-11T05:20:34.471Z,1018.82
2019-01-11T05:21:34.499Z,1018.87
2019-01-11T05:22:34.452Z,1018.83
2019-01-11T05:23:34.441Z,1018.82
2019-01-11T05:24:34.428Z,1018.85
2019-01-11T05:25:34.449Z,1018.85
2019-01-11T05:26:34.435Z,1018.85
2019-01-11T05:27:34.397Z,1018.85
2019-01-11T05:28:34.389Z,1018.87
2019-01-11T05:29:34.376Z,1018.86
2019-01-11T05:30:34.374Z,1018.83
2019-01-11T05:31:34.377Z,1018.86
2019-01-11T05:32:34.369Z,1018.85
2019-01-11T05:33:34.344Z,1018.80
2019-01-11T05:34:34.327Z,1018.79
2019-01-11T05:35:34.314Z,1018.82
2019-01-11T05:36:34.308Z,1018.78
2019-01-11T05:37:34.314Z,1018.77
2019-01-11T05:38:34.284Z,1018.78
2019-01-11T05:39:34.275Z,1018.77
2019-01-11T05:40:34.269Z,1018.78
2019-01-11T05:41:34.259Z,1018.77
2019-01-11T05:42:34.266Z,1018.82
2019-01-11T05:43:34.230Z,1018.74
2019-01-11T05:44:34.225Z,1018.76
2019-01-11T05:45:34.209Z,1018.69
2019-01-11T05:46:34.262Z,1018.74
2019-01-11T05:47:34.227Z,1018.71
2019-01-11T05:48:34.193Z,1018.70
2019-01-11T05:49:34.166Z,1018.73
2019-01-11T05:50:34.156Z,1018.71
2019-01-11T05:51:34.146Z,1018.73
2019-01-11T05:52:34.137Z,1018.76
2019-01-11T05:53:34.144Z,1018.70
2019-01-11T05:54:34.120Z,1018.72
2019-01-11T05:55:34.105Z,1018.70
2019-01-11T05:56:34.096Z,1018.71
2019-01-11T05:57:34.082Z,1018.77
2019-01-11T05:58:34.092Z,1018.75
2019-01-11T05:59:34.059Z,1018.78
2019-01-11T06:00:34.051Z,1018.75
2019-01-11T06:01:34.075Z,1018.79
2019-01-11T06:02:34.027Z,1018.78
2019-01-11T06:03:34.046Z,1018.77
2019-01-11T06:04:34.007Z,1018.82
2019-01-11T06:05:34.009Z,1018.76
2019-01-11T06:06:33.986Z,1018.77
2019-01-11T06:07:34.013Z,1018.67
2019-01-11T06:08:33.966Z,1018.70
2019-01-11T06:09:33.970Z,1018.70
2019-01-11T06:10:33.946Z,1018.68
2019-01-11T06:11:33.945Z,1018.71
2019-01-11T06:12:33.931Z,1018.67
2019-01-11T06:13:33.931Z,1018.61
2019-01-11T06:14:33.916Z,1018.62
2019-01-11T06:15:33.909Z,1018.62
2019-01-11T06:16:33.876Z,1018.66
2019-01-11T06:17:33.865Z,1018.73
2019-01-11T06:18:33.889Z,1018.73
2019-01-11T06:19:33.847Z,1018.75
2019-01-11T06:20:33.837Z,1018.73
2019-01-11T06:21:33.830Z,1018.71
2019-01-11T06:22:33.826Z,1018.66
2019-01-11T06:23:33.824Z,1018.65
2019-01-11T06:24:33.791Z,1018.58
2019-01-11T06:25:33.785Z,1018.57
2019-01-11T06:26:33.789Z,1018.56
2019-01-11T06:27:33.761Z,1018.54
2019-01-11T06:28:33.774Z,1018.65
2019-01-11T06:29:33.749Z,1018.70
2019-01-11T06:30:33.737Z,1018.69
2019-01-11T06:31:33.725Z,1018.73
2019-01-11T06:32:33.714Z,1018.73
2019-01-11T06:33:33.696Z,1018.78
2019-01-11T06:34:33.713Z,1018.71
2019-01-11T06:35:33.677Z,1018.67
2019-01-11T06:36:33.675Z,1018.63
2019-01-11T06:37:33.694Z,1018.58
2019-01-11T06:38:33.677Z,1018.56
2019-01-11T06:39:33.658Z,1018.57
2019-01-11T06:40:33.626Z,1018.59
2019-01-11T06:41:33.638Z,1018.59
2019-01-11T06:42:33.607Z,1018.63
2019-01-11T06:43:33.603Z,1018.66
2019-01-11T06:44:38.871Z,1018.64
2019-01-11T06:45:34.579Z,1018.67
2019-01-11T06:46:33.563Z,1018.75
2019-01-11T06:47:33.553Z,1018.72
2019-01-11T06:48:33.544Z,1018.70
2019-01-11T06:49:33.560Z,1018.73
2019-01-11T06:50:36.617Z,1018.74
2019-01-11T06:51:33.515Z,1018.74
2019-01-11T06:52:33.502Z,1018.69
2019-01-11T06:53:33.487Z,1018.67
2019-01-11T06:54:33.496Z,1018.68
2019-01-11T06:55:33.467Z,1018.73
2019-01-11T06:56:33.462Z,1018.68
2019-01-11T06:57:33.463Z,1018.70
2019-01-11T06:58:33.469Z,1018.68
2019-01-11T06:59:33.521Z,1018.69
2019-01-11T07:00:33.451Z,1018.69
2019-01-11T07:01:33.424Z,1018.69
2019-01-11T07:02:33.424Z,1018.62
2019-01-11T07:03:33.386Z,1018.67
2019-01-11T07:04:33.399Z,1018.67
2019-01-11T07:05:33.418Z,1018.69
2019-01-11T07:06:33.355Z,1018.68
2019-01-11T07:07:33.348Z,1018.65
2019-01-11T07:08:33.333Z,1018.64
2019-01-11T07:09:33.343Z,1018.59
2019-01-11T07:10:33.313Z,1018.60
2019-01-11T07:11:33.301Z,1018.57
2019-01-11T07:12:33.293Z,1018.63
2019-01-11T07:13:33.283Z,1018.62
2019-01-11T07:14:33.297Z,1018.65
2019-01-11T07:15:33.263Z,1018.66
2019-01-11T07:16:33.252Z,1018.66
2019-01-11T07:17:33.247Z,1018.66
2019-01-11T07:18:33.229Z,1018.70
2019-01-11T07:19:33.249Z,1018.71
2019-01-11T07:20:33.218Z,1018.66
2019-01-11T07:21:33.200Z,1018.67
2019-01-11T07:22:33.208Z,1018.74
2019-01-11T07:23:33.173Z,1018.66
2019-01-11T07:24:33.173Z,1018.69
2019-01-11T07:25:33.203Z,1018.66
2019-01-11T07:26:33.149Z,1018.70
2019-01-11T07:27:33.135Z,1018.70
2019-01-11T07:28:33.127Z,1018.72
2019-01-11T07:29:40.651Z,1018.70
2019-01-11T07:30:33.118Z,1018.72
2019-01-11T07:31:33.088Z,1018.72
2019-01-11T07:32:33.083Z,1018.68
2019-01-11T07:33:33.076Z,1018.68
2019-01-11T07:34:33.061Z,1018.66
2019-01-11T07:35:33.072Z,1018.62
2019-01-11T07:36:33.041Z,1018.69
2019-01-11T07:37:33.094Z,1018.70
2019-01-11T07:38:33.103Z,1018.68
2019-01-11T07:39:33.031Z,1018.66
2019-01-11T07:40:33.057Z,1018.69
2019-01-11T07:41:32.985Z,1018.67
2019-01-11T07:42:33.025Z,1018.68
2019-01-11T07:43:33.024Z,1018.71
2019-01-11T07:44:32.955Z,1018.77
2019-01-11T07:45:32.975Z,1018.74
2019-01-11T07:46:32.935Z,1018.73
2019-01-11T07:47:32.929Z,1018.74
2019-01-11T07:48:32.912Z,1018.76
2019-01-11T07:49:32.904Z,1018.72
2019-01-11T07:50:32.889Z,1018.78
2019-01-11T07:51:32.908Z,1018.73
2019-01-11T07:52:32.869Z,1018.76
2019-01-11T07:53:32.858Z,1018.80
2019-01-11T07:54:32.876Z,1018.78
2019-01-11T07:55:32.840Z,1018.79
2019-01-11T07:56:32.846Z,1018.76
2019-01-11T07:57:32.823Z,1018.78
2019-01-11T07:58:32.804Z,1018.72
2019-01-11T07:59:32.795Z,1018.72
2019-01-11T08:00:32.787Z,1018.67
2019-01-11T08:01:32.793Z,1018.74
2019-01-11T08:02:32.769Z,1018.69
2019-01-11T08:03:32.750Z,1018.65
2019-01-11T08:04:32.742Z,1018.67
2019-01-11T08:05:32.743Z,1018.69
2019-01-11T08:06:32.741Z,1018.63
2019-01-11T08:07:32.710Z,1018.62
2019-01-11T08:08:32.702Z,1018.63
2019-01-11T08:09:32.758Z,1018.63
2019-01-11T08:10:32.680Z,1018.60
2019-01-11T08:11:32.694Z,1018.59
2019-01-11T08:12:32.656Z,1018.58
2019-01-11T08:13:32.649Z,1018.60
2019-01-11T08:14:32.635Z,1018.60
2019-01-11T08:15:32.639Z,1018.62
2019-01-11T08:16:32.629Z,1018.59
2019-01-11T08:17:32.620Z,1018.63
2019-01-11T08:18:32.591Z,1018.61
2019-01-11T08:19:32.582Z,1018.69
2019-01-11T08:20:32.573Z,1018.67
2019-01-11T08:21:32.585Z,1018.72
2019-01-11T08:22:32.553Z,1018.75
2019-01-11T08:23:32.545Z,1018.75
2019-01-11T08:24:32.530Z,1018.74
2019-01-11T08:25:32.515Z,1018.74
2019-01-11T08:26:32.531Z,1018.74
2019-01-11T08:27:32.497Z,1018.72
2019-01-11T08:28:32.489Z,1018.74
2019-01-11T08:29:32.482Z,1018.70
2019-01-11T08:30:32.466Z,1018.70
2019-01-11T08:31:34.785Z,1018.70
2019-01-11T08:32:32.439Z,1018.69
2019-01-11T08:33:32.427Z,1018.61
2019-01-11T08:34:32.417Z,1018.68
2019-01-11T08:35:32.417Z,1018.69
2019-01-11T08:36:32.399Z,1018.66
2019-01-11T08:37:32.403Z,1018.77
2019-01-11T08:38:32.381Z,1018.67
2019-01-11T08:39:32.652Z,1018.72
2019-01-11T08:40:32.355Z,1018.70
2019-01-11T08:41:32.349Z,1018.70
2019-01-11T08:42:32.356Z,1018.74
2019-01-11T08:43:32.323Z,1018.72
2019-01-11T08:44:32.314Z,1018.71
2019-01-11T08:45:32.305Z,1018.77
2019-01-11T08:46:32.291Z,1018.72
2019-01-11T08:47:32.297Z,1018.74
2019-01-11T08:48:32.275Z,1018.77
2019-01-11T08:49:32.262Z,1018.75
2019-01-11T08:50:32.287Z,1018.72
2019-01-11T08:51:32.295Z,1018.76
2019-01-11T08:52:32.263Z,1018.72
2019-01-11T08:53:32.220Z,1018.76
2019-01-11T08:54:32.214Z,1018.75
2019-01-11T08:55:32.200Z,1018.75
2019-01-11T08:56:32.188Z,1018.77
2019-01-11T08:57:32.175Z,1018.78
2019-01-11T08:58:32.229Z,1018.72
2019-01-11T08:59:32.161Z,1018.74
2019-01-11T09:00:32.144Z,1018.72
2019-01-11T09:01:32.136Z,1018.72
2019-01-11T09:02:32.124Z,1018.74
2019-01-11T09:03:32.132Z,1018.71
2019-01-11T09:04:32.105Z,1018.68
2019-01-11T09:05:32.098Z,1018.65
2019-01-11T09:06:32.082Z,1018.62
2019-01-11T09:07:32.071Z,1018.65
2019-01-11T09:08:32.080Z,1018.57
2019-01-11T09:09:32.055Z,1018.62
2019-01-11T09:10:32.042Z,1018.60
2019-01-11T09:11:32.032Z,1018.59
2019-01-11T09:12:32.022Z,1018.60
2019-01-11T09:13:32.032Z,1018.66
2019-01-11T09:14:31.999Z,1018.60
2019-01-11T09:15:32.005Z,1018.58
2019-01-11T09:16:31.974Z,1018.58
2019-01-11T09:17:31.969Z,1018.66
2019-01-11T09:18:31.973Z,1018.64
2019-01-11T09:19:31.952Z,1018.68
2019-01-11T09:20:31.982Z,1018.76
2019-01-11T09:21:31.923Z,1018.74
2019-01-11T09:22:31.912Z,1018.81
2019-01-11T09:23:31.921Z,1018.78
2019-01-11T09:24:31.894Z,1018.79
2019-01-11T09:25:31.916Z,1018.81
2019-01-11T09:26:31.876Z,1018.74
2019-01-11T09:27:31.861Z,1018.73
2019-01-11T09:28:31.898Z,1018.74
2019-01-11T09:29:31.880Z,1018.73
2019-01-11T09:30:31.829Z,1018.77
2019-01-11T09:31:31.817Z,1018.73
2019-01-11T09:32:31.810Z,1018.72
2019-01-11T09:33:31.796Z,1018.68
2019-01-11T09:34:31.810Z,1018.65
2019-01-11T09:35:31.778Z,1018.61
2019-01-11T09:36:31.777Z,1018.61
2019-01-11T09:37:31.752Z,1018.63
2019-01-11T09:38:31.775Z,1018.65
2019-01-11T09:39:31.755Z,1018.65
2019-01-11T09:40:31.722Z,1018.75
2019-01-11T09:41:31.711Z,1018.77
2019-01-11T09:42:31.703Z,1018.72
2019-01-11T09:43:31.716Z,1018.70
2019-01-11T09:44:31.685Z,1018.71
2019-01-11T09:45:31.674Z,1018.71
2019-01-11T09:46:31.657Z,1018.73
2019-01-11T09:47:31.647Z,1018.71
2019-01-11T09:48:40.544Z,1018.74
2019-01-11T09:49:32.458Z,1018.68
2019-01-11T09:50:31.613Z,1018.77
2019-01-11T09:51:31.610Z,1018.75
2019-01-11T09:52:31.657Z,1018.73
2019-01-11T09:53:31.623Z,1018.68
2019-01-11T09:54:31.789Z,1018.70
2019-01-11T09:55:32.120Z,1018.71
2019-01-11T09:56:32.378Z,1018.72
2019-01-11T09:57:31.668Z,1018.73
2019-01-11T09:58:49.039Z,1018.70
2019-01-11T09:59:35.040Z,1018.70
2019-01-11T10:00:31.515Z,1018.74
2019-01-11T10:01:31.507Z,1018.72
2019-01-11T10:02:31.562Z,1018.73
2019-01-11T10:03:31.479Z,1018.73
2019-01-11T10:04:31.483Z,1018.71
2019-01-11T10:05:31.453Z,1018.70
2019-01-11T10:06:31.450Z,1018.73
2019-01-11T10:07:31.436Z,1018.72
2019-01-11T10:08:31.426Z,1018.73
2019-01-11T10:09:31.432Z,1018.71
2019-01-11T10:10:31.403Z,1018.71
2019-01-11T10:11:31.389Z,1018.75
2019-01-11T10:12:31.388Z,1018.71
2019-01-11T10:13:31.367Z,1018.71
2019-01-11T10:14:31.385Z,1018.75
2019-01-11T10:15:31.390Z,1018.69
2019-01-11T10:16:31.338Z,1018.71
2019-01-11T10:17:31.328Z,1018.67
2019-01-11T10:18:31.317Z,1018.67
2019-01-11T10:19:31.344Z,1018.70
2019-01-11T10:20:31.357Z,1018.67
2019-01-11T10:21:31.285Z,1018.65
2019-01-11T10:22:31.272Z,1018.70
2019-01-11T10:23:31.258Z,1018.74
2019-01-11T10:24:31.296Z,1018.74
2019-01-11T10:25:31.262Z,1018.75
2019-01-11T10:26:31.284Z,1018.65
2019-01-11T10:27:31.218Z,1018.69
2019-01-11T10:28:31.202Z,1018.66
2019-01-11T10:29:31.195Z,1018.61
2019-01-11T10:30:31.238Z,1018.61
2019-01-11T10:31:31.183Z,1018.65
2019-01-11T10:32:31.162Z,1018.63
2019-01-11T10:33:36.133Z,1018.63
2019-01-11T10:34:32.138Z,1018.68
2019-01-11T10:35:31.149Z,1018.67
2019-01-11T10:36:31.117Z,1018.64
2019-01-11T10:37:31.105Z,1018.64
2019-01-11T10:38:31.120Z,1018.64
2019-01-11T10:39:31.086Z,1018.62
2019-01-11T10:40:31.103Z,1018.62
2019-01-11T10:41:31.077Z,1018.59
2019-01-11T10:42:31.081Z,1018.52
2019-01-11T10:43:31.049Z,1018.55
2019-01-11T10:44:31.044Z,1018.55
2019-01-11T10:45:31.038Z,1018.50
2019-01-11T10:46:31.029Z,1018.55
2019-01-11T10:47:31.042Z,1018.48
2019-01-11T10:48:30.990Z,1018.49
2019-01-11T10:49:30.996Z,1018.51
2019-01-11T10:50:30.992Z,1018.51
2019-01-11T10:51:30.957Z,1018.56
2019-01-11T10:52:30.950Z,1018.53
2019-01-11T10:53:30.940Z,1018.55
2019-01-11T10:54:30.961Z,1018.54
2019-01-11T10:55:30.948Z,1018.54
2019-01-11T10:56:30.902Z,1018.52
2019-01-11T10:57:30.895Z,1018.52
2019-01-11T10:58:30.890Z,1018.43
2019-01-11T10:59:30.894Z,1018.45
2019-01-11T11:00:30.914Z,1018.48
2019-01-11T11:01:31.075Z,1018.48
2019-01-11T11:02:30.841Z,1018.50
2019-01-11T11:03:30.830Z,1018.46
2019-01-11T11:04:30.818Z,1018.44
2019-01-11T11:05:30.823Z,1018.43
2019-01-11T11:06:30.801Z,1018.45
2019-01-11T11:07:30.789Z,1018.45
2019-01-11T11:08:31.252Z,1018.40
2019-01-11T11:09:30.763Z,1018.39
2019-01-11T11:10:30.771Z,1018.34
2019-01-11T11:11:30.798Z,1018.37
2019-01-11T11:12:30.733Z,1018.33
2019-01-11T11:13:30.723Z,1018.32
2019-01-11T11:14:30.722Z,1018.30
2019-01-11T11:15:30.721Z,1018.29
2019-01-11T11:16:32.929Z,1018.34
2019-01-11T11:17:30.678Z,1018.28
2019-01-11T11:18:30.666Z,1018.32
2019-01-11T11:19:30.672Z,1018.30
2019-01-11T11:20:30.648Z,1018.28
2019-01-11T11:21:34.634Z,1018.33
2019-01-11T11:22:30.631Z,1018.35
2019-01-11T11:23:30.616Z,1018.35
2019-01-11T11:24:30.606Z,1018.31
2019-01-11T11:25:30.642Z,1018.32
2019-01-11T11:26:30.605Z,1018.32
2019-01-11T11:27:30.575Z,1018.25
2019-01-11T11:28:30.560Z,1018.29
2019-01-11T11:29:30.550Z,1018.30
2019-01-11T11:30:30.536Z,1018.27
2019-01-11T11:31:30.545Z,1018.30
2019-01-11T11:32:30.511Z,1018.36
2019-01-11T11:33:30.507Z,1018.29
2019-01-11T11:34:30.490Z,1018.29
2019-01-11T11:35:30.484Z,1018.24
2019-01-11T11:36:30.509Z,1018.32
2019-01-11T11:37:30.462Z,1018.33
2019-01-11T11:38:30.450Z,1018.25
2019-01-11T11:39:30.477Z,1018.28
2019-01-11T11:40:30.531Z,1018.22
2019-01-11T11:41:30.527Z,1018.25
2019-01-11T11:42:30.503Z,1018.14
2019-01-11T11:43:30.458Z,1018.18
2019-01-11T11:44:30.432Z,1018.18
2019-01-11T11:45:30.374Z,1018.15
2019-01-11T11:46:30.367Z,1018.07
2019-01-11T11:47:30.377Z,1018.13
2019-01-11T11:48:30.357Z,1018.15
2019-01-11T11:49:30.358Z,1018.21
2019-01-11T11:50:30.366Z,1018.15
2019-01-11T11:51:30.306Z,1018.14
2019-01-11T11:52:30.336Z,1018.17
2019-01-11T11:53:30.285Z,1018.15
2019-01-11T11:54:30.287Z,1018.13
2019-01-11T11:55:30.263Z,1018.14
2019-01-11T11:56:30.254Z,1018.14
2019-01-11T11:57:30.239Z,1018.11
2019-01-11T11:58:30.247Z,1018.14
2019-01-11T11:59:30.218Z,1018.14
2019-01-11T12:00:30.260Z,1018.12
2019-01-11T12:01:30.221Z,1018.21
2019-01-11T12:02:30.203Z,1018.14
2019-01-11T12:03:30.194Z,1018.08
2019-01-11T12:04:30.194Z,1018.10
2019-01-11T12:05:30.152Z,1018.13